createdAt,value
2017-10-21T00:00:07.222Z,12.70
2017-10-21T00:02:34.744Z,12.83
2017-10-21T00:05:02.253Z,12.63
2017-10-21T00:07:29.747Z,12.54
2017-10-21T00:09:57.259Z,12.80
2017-10-21T00:12:36.521Z,12.79
2017-10-21T00:15:04.047Z,12.70
2017-10-21T00:17:31.559Z,12.90
2017-10-21T00:19:59.371Z,12.82
2017-10-21T00:22:28.747Z,12.80
2017-10-21T00:24:56.280Z,12.80
2017-10-21T00:27:23.807Z,12.64
2017-10-21T00:29:51.320Z,12.64
2017-10-21T00:32:18.838Z,12.35
2017-10-21T00:34:46.375Z,12.35
2017-10-21T00:37:13.903Z,12.22
2017-10-21T00:39:41.419Z,12.32
2017-10-21T00:42:08.974Z,12.21
2017-10-21T00:44:36.602Z,12.11
2017-10-21T00:47:04.166Z,11.97
2017-10-21T00:49:31.698Z,11.94
2017-10-21T00:51:59.224Z,11.93
2017-10-21T00:54:26.740Z,11.93
2017-10-21T00:56:54.246Z,12.03
2017-10-21T00:59:21.759Z,12.18
2017-10-21T01:01:49.264Z,12.04
2017-10-21T01:04:16.904Z,11.99
2017-10-21T01:06:54.845Z,12.11
2017-10-21T01:09:22.418Z,12.13
2017-10-21T01:11:49.979Z,12.04
2017-10-21T01:14:17.483Z,11.67
2017-10-21T01:16:44.991Z,11.54
2017-10-21T01:19:12.530Z,11.52
2017-10-21T01:21:40.861Z,11.78
2017-10-21T01:24:08.381Z,11.69
2017-10-21T01:26:35.901Z,11.66
2017-10-21T01:29:03.503Z,11.61
2017-10-21T01:31:31.043Z,11.55
2017-10-21T01:34:00.130Z,11.55
2017-10-21T01:36:27.645Z,11.52
2017-10-21T01:38:55.187Z,11.70
2017-10-21T01:41:22.692Z,11.84
2017-10-21T01:43:50.222Z,11.72
2017-10-21T01:46:17.719Z,11.52
2017-10-21T01:48:45.247Z,11.32
2017-10-21T01:51:12.865Z,11.29
2017-10-21T01:53:40.389Z,11.44
2017-10-21T02:08:00.723Z,10.92
2017-10-21T02:10:28.351Z,11.07
2017-10-21T02:12:55.885Z,11.17
2017-10-21T02:15:23.407Z,11.21
2017-10-21T02:17:50.916Z,11.04
2017-10-21T02:20:18.435Z,10.74
2017-10-21T02:34:49.196Z,11.30
2017-10-21T02:37:17.394Z,11.34
2017-10-21T02:39:44.907Z,11.46
2017-10-21T02:42:12.422Z,11.41
2017-10-21T02:44:40.043Z,11.36
2017-10-21T02:47:07.565Z,11.25
2017-10-21T02:49:35.096Z,11.31
2017-10-21T02:52:02.633Z,11.17
2017-10-21T02:54:30.152Z,10.90
2017-10-21T02:56:57.668Z,10.69
2017-10-21T02:59:25.211Z,10.86
2017-10-21T03:01:52.748Z,10.84
2017-10-21T03:04:20.261Z,10.73
2017-10-21T03:06:47.776Z,10.67
2017-10-21T03:09:15.300Z,10.96
2017-10-21T03:11:42.814Z,10.97
2017-10-21T03:14:10.344Z,10.85
2017-10-21T03:16:37.858Z,10.59
2017-10-21T03:19:05.454Z,10.56
2017-10-21T03:21:33.013Z,10.44
2017-10-21T03:24:00.525Z,10.29
2017-10-21T03:26:28.046Z,10.29
2017-10-21T03:28:55.567Z,10.22
2017-10-21T03:31:23.060Z,10.27
2017-10-21T03:33:50.559Z,10.27
2017-10-21T03:47:50.821Z,10.51
2017-10-21T03:50:18.334Z,10.68
2017-10-21T03:52:45.843Z,10.83
2017-10-21T03:55:13.343Z,10.81
2017-10-21T03:57:40.879Z,10.64
2017-10-21T04:00:08.387Z,10.50
2017-10-21T04:02:35.900Z,10.53
2017-10-21T04:05:03.417Z,10.51
2017-10-21T04:07:30.926Z,10.51
2017-10-21T04:09:58.430Z,10.72
2017-10-21T04:12:25.951Z,10.60
2017-10-21T04:14:53.459Z,10.68
2017-10-21T04:17:20.992Z,10.72
2017-10-21T04:19:48.496Z,10.95
2017-10-21T04:22:16.042Z,11.03
2017-10-21T04:24:43.548Z,10.96
2017-10-21T04:27:11.068Z,11.12
2017-10-21T04:29:38.584Z,11.32
2017-10-21T04:32:06.107Z,11.41
2017-10-21T04:34:33.620Z,11.27
2017-10-21T04:37:01.130Z,11.37
2017-10-21T04:39:28.639Z,11.39
2017-10-21T04:44:53.313Z,11.54
2017-10-21T04:47:20.820Z,11.40
2017-10-21T04:49:48.341Z,11.22
2017-10-21T04:52:15.851Z,11.28
2017-10-21T04:54:43.377Z,11.11
2017-10-21T04:57:10.883Z,11.29
2017-10-21T04:59:38.399Z,11.14
2017-10-21T05:02:05.912Z,11.19
2017-10-21T05:07:29.680Z,11.05
2017-10-21T05:09:57.180Z,10.89
2017-10-21T05:12:24.691Z,10.85
2017-10-21T05:14:52.204Z,10.60
2017-10-21T05:17:19.751Z,10.41
2017-10-21T05:19:47.307Z,10.28
2017-10-21T05:22:15.653Z,10.17
2017-10-21T05:24:43.161Z,10.11
2017-10-21T05:27:10.685Z,10.03
2017-10-21T05:29:38.224Z,10.11
2017-10-21T05:32:05.750Z,10.07
2017-10-21T05:34:33.299Z,10.22
2017-10-21T05:37:01.138Z,10.18
2017-10-21T05:39:28.655Z,10.32
2017-10-21T05:41:56.174Z,10.35
2017-10-21T05:44:23.695Z,10.26
2017-10-21T05:46:51.214Z,10.38
2017-10-21T05:49:18.746Z,10.49
2017-10-21T05:51:46.271Z,10.56
2017-10-21T05:54:13.805Z,10.40
2017-10-21T05:56:41.317Z,10.32
2017-10-21T05:59:08.824Z,10.26
2017-10-21T06:01:36.336Z,10.32
2017-10-21T06:04:03.848Z,10.24
2017-10-21T06:18:04.216Z,10.30
2017-10-21T06:20:31.724Z,10.36
2017-10-21T06:22:59.233Z,10.29
2017-10-21T06:25:26.752Z,10.00
2017-10-21T06:27:54.277Z,9.93
2017-10-21T06:30:21.790Z,9.94
2017-10-21T06:32:49.328Z,10.18
2017-10-21T06:35:16.858Z,10.30
2017-10-21T06:37:44.378Z,10.30
2017-10-21T06:40:11.895Z,10.41
2017-10-21T06:42:39.396Z,10.62
2017-10-21T06:45:07.013Z,10.87
2017-10-21T06:47:34.546Z,11.34
2017-10-21T06:50:02.059Z,11.43
2017-10-21T06:52:29.586Z,11.74
2017-10-21T06:54:57.120Z,11.62
2017-10-21T06:57:24.634Z,11.63
2017-10-21T06:59:52.148Z,11.79
2017-10-21T07:02:19.661Z,12.13
2017-10-21T07:04:47.198Z,12.25
2017-10-21T07:07:14.703Z,11.99
2017-10-21T07:09:42.229Z,12.76
2017-10-21T07:12:09.745Z,12.59
2017-10-21T07:14:37.276Z,12.49
2017-10-21T07:17:04.816Z,12.59
2017-10-21T07:19:32.366Z,12.66
2017-10-21T07:21:59.895Z,12.77
2017-10-21T07:24:27.429Z,12.71
2017-10-21T07:26:54.953Z,12.82
2017-10-21T07:29:22.560Z,13.52
2017-10-21T07:31:50.093Z,12.83
2017-10-21T07:34:26.774Z,13.04
2017-10-21T07:36:54.278Z,12.99
2017-10-21T07:39:21.823Z,13.21
2017-10-21T07:41:49.342Z,13.77
2017-10-21T07:44:16.850Z,13.60
2017-10-21T07:46:44.368Z,13.72
2017-10-21T07:49:11.942Z,14.22
2017-10-21T07:51:39.498Z,14.34
2017-10-21T07:54:07.008Z,13.95
2017-10-21T07:56:34.539Z,14.56
2017-10-21T07:59:02.078Z,15.49
2017-10-21T08:01:29.604Z,16.77
2017-10-21T08:03:57.659Z,16.94
2017-10-21T08:06:28.143Z,17.28
2017-10-21T08:08:55.682Z,17.48
2017-10-21T08:11:23.208Z,19.01
2017-10-21T08:13:50.719Z,20.03
2017-10-21T08:16:28.547Z,18.86
2017-10-21T08:18:56.163Z,20.65
2017-10-21T08:21:23.693Z,21.09
2017-10-21T08:23:51.271Z,20.40
2017-10-21T08:26:18.901Z,21.84
2017-10-21T08:28:46.417Z,22.39
2017-10-21T08:31:13.984Z,23.22
2017-10-21T08:33:41.492Z,24.64
2017-10-21T08:36:09.001Z,24.53
2017-10-21T08:38:36.519Z,24.27
2017-10-21T08:41:04.049Z,22.53
2017-10-21T08:43:31.567Z,21.62
2017-10-21T08:45:59.085Z,20.82
2017-10-21T08:48:26.711Z,19.85
2017-10-21T08:50:54.258Z,21.04
2017-10-21T08:53:21.789Z,21.73
2017-10-21T08:55:49.340Z,24.90
2017-10-21T08:58:16.853Z,23.98
2017-10-21T09:00:44.408Z,23.09
2017-10-21T09:03:11.924Z,27.34
2017-10-21T09:05:39.469Z,27.70
2017-10-21T09:08:06.992Z,28.81
2017-10-21T09:10:34.491Z,25.33
2017-10-21T09:13:01.999Z,26.87
2017-10-21T09:15:29.538Z,26.84
2017-10-21T09:17:57.162Z,29.55
2017-10-21T09:20:24.671Z,29.04
2017-10-21T09:22:52.257Z,29.62
2017-10-21T09:25:19.764Z,31.62
2017-10-21T09:27:47.297Z,31.02
2017-10-21T09:30:14.814Z,30.45
2017-10-21T09:32:42.457Z,29.72
2017-10-21T09:35:09.962Z,29.36
2017-10-21T09:37:37.496Z,29.49
2017-10-21T09:40:05.039Z,30.37
2017-10-21T09:42:32.564Z,29.65
2017-10-21T09:45:00.083Z,31.31
2017-10-21T09:50:23.808Z,27.79
2017-10-21T09:52:51.336Z,26.98
2017-10-21T09:55:18.890Z,25.75
2017-10-21T09:57:46.396Z,24.63
2017-10-21T10:00:23.822Z,24.66
2017-10-21T10:03:07.108Z,25.73
2017-10-21T10:05:34.669Z,28.05
2017-10-21T10:08:02.199Z,29.26
2017-10-21T10:10:29.712Z,29.85
2017-10-21T10:12:57.225Z,30.66
2017-10-21T10:15:24.743Z,29.56
2017-10-21T10:17:52.276Z,27.00
2017-10-21T10:20:36.512Z,26.61
2017-10-21T10:23:04.021Z,25.21
2017-10-21T10:25:31.570Z,23.99
2017-10-21T10:27:59.084Z,23.06
2017-10-21T10:36:36.539Z,22.48
2017-10-21T10:46:30.043Z,22.01
2017-10-21T10:48:57.560Z,22.56
2017-10-21T10:51:25.088Z,22.57
2017-10-21T10:53:52.610Z,23.09
2017-10-21T10:56:20.112Z,23.53
2017-10-21T10:58:47.653Z,23.37
2017-10-21T11:01:15.162Z,22.86
2017-10-21T11:03:42.668Z,22.51
2017-10-21T11:06:10.223Z,22.96
2017-10-21T11:08:37.729Z,23.40
2017-10-21T11:11:05.239Z,22.96
2017-10-21T11:13:32.760Z,23.12
2017-10-21T11:33:16.984Z,22.94
2017-10-21T11:36:06.417Z,22.84
2017-10-21T11:41:37.328Z,23.78
2017-10-21T11:44:04.827Z,24.51
2017-10-21T11:46:32.338Z,24.52
2017-10-21T11:49:00.700Z,24.38
2017-10-21T11:51:43.141Z,23.86
2017-10-21T11:54:10.652Z,23.67
2017-10-21T11:56:39.042Z,23.90
2017-10-21T11:59:06.551Z,24.16
2017-10-21T12:01:34.063Z,23.71
2017-10-21T12:04:01.575Z,23.26
2017-10-21T12:06:29.080Z,23.02
2017-10-21T12:08:56.592Z,23.18
2017-10-21T12:11:24.209Z,22.87
2017-10-21T12:13:52.705Z,22.90
2017-10-21T12:16:20.215Z,22.79
2017-10-21T12:18:47.729Z,22.84
2017-10-21T12:21:15.261Z,22.58
2017-10-21T12:23:42.783Z,23.10
2017-10-21T12:26:17.263Z,22.40
2017-10-21T12:28:47.611Z,22.14
2017-10-21T12:31:15.122Z,22.50
2017-10-21T12:33:42.658Z,22.57
2017-10-21T12:36:10.183Z,23.34
2017-10-21T12:38:37.703Z,23.05
2017-10-21T12:41:05.198Z,23.29
2017-10-21T12:43:32.730Z,23.66
2017-10-21T12:46:00.261Z,23.50
2017-10-21T12:48:27.820Z,24.14
2017-10-21T12:50:55.331Z,23.96
2017-10-21T12:53:22.846Z,23.97
2017-10-21T12:55:57.975Z,23.45
2017-10-21T12:58:26.451Z,23.64
2017-10-21T13:00:53.971Z,23.09
2017-10-21T13:03:21.492Z,23.09
2017-10-21T13:05:48.996Z,23.22
2017-10-21T13:08:17.227Z,23.03
2017-10-21T13:10:44.765Z,22.72
2017-10-21T13:13:12.287Z,22.57
2017-10-21T13:18:36.803Z,22.27
2017-10-21T13:21:04.339Z,22.21
2017-10-21T13:23:31.845Z,21.74
2017-10-21T13:25:59.375Z,21.67
2017-10-21T13:28:26.963Z,21.72
2017-10-21T13:30:54.492Z,21.55
2017-10-21T13:33:22.003Z,21.40
2017-10-21T13:35:49.529Z,21.25
2017-10-21T13:38:17.045Z,21.28
2017-10-21T13:40:44.580Z,21.41
2017-10-21T13:46:08.406Z,21.03
2017-10-21T13:48:35.925Z,21.20
2017-10-21T13:51:03.435Z,21.08
2017-10-21T13:53:30.955Z,21.06
2017-10-21T13:55:58.511Z,21.21
2017-10-21T13:58:26.052Z,21.07
2017-10-21T14:00:53.548Z,20.90
2017-10-21T14:03:21.060Z,20.84
2017-10-21T14:05:48.654Z,21.04
2017-10-21T14:08:16.148Z,21.38
2017-10-21T14:10:43.683Z,21.55
2017-10-21T14:13:11.187Z,21.34
2017-10-21T14:15:38.724Z,21.47
2017-10-21T14:18:06.305Z,21.43
2017-10-21T14:20:33.833Z,21.28
2017-10-21T14:23:01.372Z,21.24
2017-10-21T14:25:28.909Z,21.44
2017-10-21T14:27:56.446Z,21.47
2017-10-21T14:30:24.003Z,21.33
2017-10-21T14:32:51.531Z,21.50
2017-10-21T14:35:19.052Z,21.42
2017-10-21T14:37:46.568Z,21.26
2017-10-21T14:43:10.306Z,21.58
2017-10-21T14:45:38.318Z,21.42
2017-10-21T14:48:06.484Z,21.12
2017-10-21T14:50:34.003Z,21.12
2017-10-21T14:53:01.541Z,20.40
2017-10-21T14:55:29.063Z,20.26
2017-10-21T14:57:56.580Z,20.18
2017-10-21T15:00:24.193Z,20.34
2017-10-21T15:02:51.714Z,20.28
2017-10-21T15:05:19.255Z,20.16
2017-10-21T15:07:46.819Z,20.08
2017-10-21T15:10:14.336Z,20.04
2017-10-21T15:12:41.870Z,20.24
2017-10-21T15:15:09.406Z,20.14
2017-10-21T15:17:36.950Z,20.09
2017-10-21T15:20:04.496Z,20.06
2017-10-21T15:22:32.072Z,19.96
2017-10-21T15:24:59.598Z,19.68
2017-10-21T15:27:27.106Z,19.97
2017-10-21T15:29:54.622Z,20.15
2017-10-21T15:32:22.146Z,19.97
2017-10-21T15:34:49.664Z,19.85
2017-10-21T15:37:17.225Z,19.73
2017-10-21T15:39:44.747Z,19.62
2017-10-21T15:42:12.244Z,19.28
2017-10-21T15:44:40.666Z,19.23
2017-10-21T15:47:08.172Z,18.90
2017-10-21T15:49:35.706Z,18.47
2017-10-21T15:52:13.148Z,18.43
2017-10-21T15:54:40.976Z,17.96
2017-10-21T15:57:08.476Z,17.44
2017-10-21T15:59:36.022Z,17.57
2017-10-21T16:02:03.544Z,17.40
2017-10-21T16:04:31.056Z,16.85
2017-10-21T16:06:58.607Z,16.80
2017-10-21T16:09:26.116Z,16.81
2017-10-21T16:11:53.775Z,16.85
2017-10-21T16:14:21.299Z,16.35
2017-10-21T16:16:48.839Z,16.26
2017-10-21T16:19:16.519Z,16.30
2017-10-21T16:21:44.033Z,16.53
2017-10-21T16:24:11.563Z,16.43
2017-10-21T16:26:39.095Z,16.87
2017-10-21T16:29:06.653Z,16.59
2017-10-21T16:31:34.190Z,16.53
2017-10-21T16:39:56.197Z,16.36
2017-10-21T16:42:24.477Z,16.36
2017-10-21T16:44:52.267Z,16.43
2017-10-21T16:47:19.772Z,15.94
2017-10-21T16:49:47.331Z,15.81
2017-10-21T16:52:15.417Z,16.06
2017-10-21T16:54:42.939Z,15.82
2017-10-21T16:57:10.478Z,15.83
2017-10-21T17:11:10.696Z,16.38
2017-10-21T17:13:38.248Z,16.19
2017-10-21T17:16:05.784Z,15.88
2017-10-21T17:18:43.238Z,15.68
2017-10-21T17:21:10.767Z,15.42
2017-10-21T17:23:38.272Z,15.23
2017-10-21T17:26:05.852Z,15.11
2017-10-21T17:28:33.407Z,15.15
2017-10-21T17:31:00.907Z,15.02
2017-10-21T17:33:28.423Z,14.80
2017-10-21T17:35:55.968Z,14.75
2017-10-21T17:38:23.468Z,14.64
2017-10-21T17:40:50.978Z,14.61
2017-10-21T17:43:28.815Z,14.51
2017-10-21T17:45:56.410Z,14.49
2017-10-21T17:48:23.953Z,14.45
2017-10-21T17:50:51.466Z,14.43
2017-10-21T17:53:19.010Z,14.37
2017-10-21T17:55:46.565Z,14.54
2017-10-21T17:58:14.093Z,14.54
2017-10-21T18:00:41.606Z,14.42
2017-10-21T18:03:09.185Z,14.09
2017-10-21T18:05:36.692Z,14.13
2017-10-21T18:08:04.337Z,14.05
2017-10-21T18:10:31.869Z,14.03
2017-10-21T18:12:59.407Z,13.84
2017-10-21T18:15:26.953Z,13.66
2017-10-21T18:17:54.910Z,13.64
2017-10-21T18:20:22.423Z,13.59
2017-10-21T18:22:49.963Z,13.67
2017-10-21T18:25:17.615Z,13.53
2017-10-21T18:27:45.152Z,13.45
2017-10-21T18:30:12.771Z,13.43
2017-10-21T18:35:36.508Z,13.40
2017-10-21T18:38:04.040Z,13.25
2017-10-21T18:40:46.471Z,13.06
2017-10-21T18:43:13.992Z,12.99
2017-10-21T18:45:41.542Z,12.78
2017-10-21T18:48:09.061Z,12.84
2017-10-21T18:50:36.594Z,12.96
2017-10-21T18:53:04.120Z,13.02
2017-10-21T18:55:31.641Z,13.03
2017-10-21T18:57:59.159Z,12.87
2017-10-21T19:00:26.704Z,12.80
2017-10-21T19:02:54.238Z,12.68
2017-10-21T19:05:21.910Z,12.86
2017-10-21T19:07:49.431Z,12.79
2017-10-21T19:10:17.028Z,12.69
2017-10-21T19:12:44.851Z,12.53
2017-10-21T19:15:12.365Z,12.40
2017-10-21T19:17:39.964Z,12.54
2017-10-21T19:20:07.500Z,12.24
2017-10-21T19:22:35.040Z,12.03
2017-10-21T19:25:02.955Z,11.79
2017-10-21T19:27:30.494Z,12.03
2017-10-21T19:29:58.019Z,12.02
2017-10-21T19:32:25.531Z,12.17
2017-10-21T19:34:53.068Z,11.82
2017-10-21T19:37:20.687Z,11.61
2017-10-21T19:39:48.223Z,11.54
2017-10-21T19:42:15.827Z,11.61
2017-10-21T19:44:48.563Z,11.57
2017-10-21T19:47:16.079Z,11.61
2017-10-21T19:52:43.775Z,12.06
2017-10-21T19:55:11.325Z,12.12
2017-10-21T19:57:38.857Z,12.09
2017-10-21T20:00:06.608Z,12.05
2017-10-21T20:02:34.155Z,11.76
2017-10-21T20:05:12.031Z,11.85
2017-10-21T20:07:39.576Z,11.45
2017-10-21T20:10:07.453Z,11.45
2017-10-21T20:12:35.043Z,11.49
2017-10-21T20:15:02.580Z,11.59
2017-10-21T20:17:30.084Z,11.40
2017-10-21T20:19:57.614Z,11.36
2017-10-21T20:22:25.126Z,11.37
2017-10-21T20:24:52.659Z,11.07
2017-10-21T20:42:08.856Z,10.82
2017-10-21T20:44:36.485Z,10.90
2017-10-21T20:47:04.059Z,10.96
2017-10-21T20:49:31.584Z,11.07
2017-10-21T20:51:59.084Z,11.02
2017-10-21T20:54:26.593Z,10.98
2017-10-21T20:56:54.126Z,10.73
2017-10-21T20:59:21.640Z,10.63
2017-10-21T21:01:49.180Z,11.11
2017-10-21T21:04:16.711Z,11.25
2017-10-21T21:06:44.219Z,11.17
2017-10-21T21:09:11.974Z,11.21
2017-10-21T21:11:39.520Z,11.18
2017-10-21T21:14:07.042Z,11.33
2017-10-21T21:16:34.568Z,11.28
2017-10-21T21:19:02.091Z,10.98
2017-10-21T21:21:29.626Z,11.04
2017-10-21T21:23:57.160Z,11.31
2017-10-21T21:26:24.779Z,11.32
2017-10-21T21:28:52.297Z,11.47
2017-10-21T21:31:19.829Z,11.55
2017-10-21T21:33:47.344Z,11.50
2017-10-21T21:36:25.672Z,11.25
2017-10-21T21:38:53.197Z,10.95
2017-10-21T21:41:20.722Z,10.76
2017-10-21T21:43:48.243Z,10.70
2017-10-21T21:46:15.780Z,10.81
2017-10-21T21:48:43.292Z,10.88
2017-10-21T21:51:10.803Z,10.95
2017-10-21T21:53:38.327Z,10.64
2017-10-21T21:56:10.821Z,10.87
2017-10-21T21:58:38.328Z,11.29
2017-10-21T22:01:05.849Z,11.22
2017-10-21T22:03:33.372Z,10.75
2017-10-21T22:06:11.626Z,10.68
2017-10-21T22:08:39.145Z,10.75
2017-10-21T22:11:06.682Z,11.09
2017-10-21T22:13:34.187Z,11.08
2017-10-21T22:16:08.813Z,10.97
2017-10-21T22:18:36.340Z,11.09
2017-10-21T22:21:03.906Z,11.24
2017-10-21T22:23:31.415Z,11.13
2017-10-21T22:28:57.944Z,10.93
2017-10-21T22:31:25.483Z,10.83
2017-10-21T22:33:53.007Z,11.20
2017-10-21T22:36:20.510Z,11.26
2017-10-21T22:38:48.048Z,11.00
2017-10-21T22:41:15.561Z,11.17
2017-10-21T22:43:43.073Z,11.28
2017-10-21T22:46:10.588Z,11.56
2017-10-21T22:48:38.097Z,11.33
2017-10-21T22:51:05.604Z,11.48
2017-10-21T22:53:33.136Z,11.53
2017-10-21T22:56:00.655Z,11.51
2017-10-21T22:58:28.188Z,11.57
2017-10-21T23:00:55.702Z,11.35
2017-10-21T23:03:23.215Z,11.48
2017-10-21T23:05:50.721Z,11.44
2017-10-21T23:08:18.270Z,11.62
2017-10-21T23:10:45.813Z,11.55
2017-10-21T23:13:13.320Z,11.60
2017-10-21T23:15:40.828Z,11.58
2017-10-21T23:18:08.337Z,11.53
2017-10-21T23:20:35.852Z,11.60
2017-10-21T23:23:03.346Z,11.80
2017-10-21T23:25:30.848Z,11.72
2017-10-21T23:27:58.352Z,11.61
2017-10-21T23:30:25.877Z,11.51
2017-10-21T23:32:53.464Z,11.47
2017-10-21T23:35:20.976Z,11.52
2017-10-21T23:37:48.512Z,11.52
2017-10-21T23:40:16.029Z,11.44
2017-10-21T23:42:43.540Z,11.63
2017-10-21T23:45:11.075Z,11.73
2017-10-21T23:47:38.585Z,11.39
2017-10-21T23:50:06.097Z,11.41
2017-10-21T23:52:33.642Z,11.33
2017-10-21T23:55:01.171Z,11.33
2017-10-21T23:57:28.679Z,11.37
2017-10-21T23:59:56.173Z,11.41
